createdAt,value
2023-04-24T00:00:00.879Z,7.8
2023-04-24T00:05:00.884Z,7.8
2023-04-24T00:10:00.929Z,7.8
2023-04-24T00:15:00.966Z,7.8
2023-04-24T00:20:01.082Z,7.8
2023-04-24T00:25:00.867Z,7.8
2023-04-24T00:30:00.996Z,7.8
2023-04-24T00:35:00.842Z,7.8
2023-04-24T00:40:00.877Z,7.8
2023-04-24T00:45:00.845Z,7.7
2023-04-24T00:55:01.096Z,7.7
2023-04-24T01:00:01.114Z,7.7
2023-04-24T01:05:01.003Z,7.6
2023-04-24T01:10:00.937Z,7.6
2023-04-24T01:15:00.989Z,7.5
2023-04-24T01:20:01.043Z,7.4
2023-04-24T01:25:00.968Z,7.5
2023-04-24T01:30:00.829Z,7.4
2023-04-24T01:35:00.971Z,7.4
2023-04-24T01:40:00.911Z,7.4
2023-04-24T01:45:01.000Z,7.4
2023-04-24T01:50:01.011Z,7.4
2023-04-24T01:55:01.016Z,7.4
2023-04-24T02:00:00.951Z,7.4
2023-04-24T02:05:01.066Z,7.4
2023-04-24T02:10:01.096Z,7.4
2023-04-24T02:15:01.004Z,7.3
2023-04-24T02:20:01.018Z,7.3
2023-04-24T02:25:00.998Z,7.2
2023-04-24T02:30:01.074Z,7.2
2023-04-24T02:35:00.937Z,7.1
2023-04-24T02:40:00.966Z,7.1
2023-04-24T02:45:00.946Z,7.1
2023-04-24T02:50:00.813Z,7.2
2023-04-24T02:55:00.938Z,7.2
2023-04-24T03:00:00.821Z,7.1
2023-04-24T03:05:00.957Z,7.1
2023-04-24T03:10:00.957Z,7.1
2023-04-24T03:15:01.058Z,7.1
2023-04-24T03:20:00.893Z,7.2
2023-04-24T03:25:01.014Z,7.1
2023-04-24T03:30:00.909Z,7.1
2023-04-24T03:35:00.878Z,7.2
2023-04-24T03:40:00.954Z,7.2
2023-04-24T03:45:00.924Z,7.1
2023-04-24T03:50:00.890Z,7.1
2023-04-24T03:55:01.081Z,7.1
2023-04-24T04:00:00.967Z,7.1
2023-04-24T04:05:01.120Z,7.1
2023-04-24T04:10:00.848Z,7.1
2023-04-24T04:15:00.937Z,7.1
2023-04-24T04:20:00.870Z,7.1
2023-04-24T04:25:00.853Z,7.1
2023-04-24T04:30:00.912Z,7.1
2023-04-24T04:35:00.974Z,7
2023-04-24T04:40:00.976Z,7.1
2023-04-24T04:45:00.988Z,7.1
2023-04-24T04:50:00.878Z,7
2023-04-24T04:55:00.870Z,7.1
2023-04-24T05:00:00.924Z,7.1
2023-04-24T05:05:01.069Z,7.1
2023-04-24T05:10:00.835Z,7.1
2023-04-24T05:15:00.816Z,7.1
2023-04-24T05:20:00.961Z,7.2
2023-04-24T05:25:01.024Z,7.2
2023-04-24T05:30:00.971Z,7.3
2023-04-24T05:35:00.919Z,7.2
2023-04-24T05:40:01.010Z,7.3
2023-04-24T05:45:00.919Z,7.3
2023-04-24T05:50:00.946Z,7.3
2023-04-24T05:55:00.976Z,7.3
2023-04-24T06:00:00.963Z,7.3
2023-04-24T06:05:01.116Z,7.3
2023-04-24T06:10:00.977Z,7.3
2023-04-24T06:15:00.927Z,7.4
2023-04-24T06:20:00.885Z,7.4
2023-04-24T06:25:00.930Z,7.3
2023-04-24T06:30:00.940Z,7.3
2023-04-24T06:40:00.964Z,7.5
2023-04-24T06:45:00.847Z,7.5
2023-04-24T06:50:00.931Z,7.4
2023-04-24T06:55:00.804Z,7.5
2023-04-24T07:00:00.990Z,7.6
2023-04-24T07:05:01.010Z,7.8
2023-04-24T07:15:00.931Z,8.1
2023-04-24T07:20:01.094Z,8
2023-04-24T07:25:00.901Z,7.9
2023-04-24T07:30:01.079Z,7.8
2023-04-24T07:35:00.943Z,7.7
2023-04-24T07:40:00.999Z,7.7
2023-04-24T07:45:00.901Z,7.8
2023-04-24T07:50:00.929Z,7.8
2023-04-24T07:55:00.956Z,7.6
2023-04-24T08:00:01.028Z,7.6
2023-04-24T08:05:00.979Z,7.6
2023-04-24T08:10:00.859Z,7.6
2023-04-24T08:15:01.031Z,6.8
2023-04-24T08:20:00.980Z,6.6
2023-04-24T08:25:00.984Z,6.7
2023-04-24T08:30:00.900Z,6.7
2023-04-24T08:35:01.020Z,6.6
2023-04-24T08:40:01.040Z,6.6
2023-04-24T08:50:00.876Z,6.6
2023-04-24T08:55:00.930Z,6.6
2023-04-24T09:00:00.918Z,6.8
2023-04-24T09:05:00.866Z,6.9
2023-04-24T09:10:00.926Z,7.2
2023-04-24T09:15:00.900Z,7.2
2023-04-24T09:20:00.947Z,7.4
2023-04-24T09:30:00.981Z,7.6
2023-04-24T09:45:08.250Z,7.4
2023-04-24T09:55:00.942Z,7.1
2023-04-24T10:00:00.955Z,7.1
2023-04-24T10:05:01.572Z,7.2
2023-04-24T10:10:00.940Z,7.5
2023-04-24T10:15:01.041Z,7.5
2023-04-24T10:20:00.943Z,7.4
2023-04-24T10:25:00.953Z,7.4
2023-04-24T10:30:00.957Z,7.2
2023-04-24T10:35:00.938Z,7.6
2023-04-24T10:40:00.937Z,7.2
2023-04-24T10:45:00.967Z,7.3
2023-04-24T10:50:00.913Z,6.9
2023-04-24T10:55:00.946Z,6.9
2023-04-24T11:00:00.962Z,7.2
2023-04-24T11:05:00.985Z,7.1
2023-04-24T11:10:00.923Z,7.1
2023-04-24T11:15:01.074Z,6.9
2023-04-24T11:20:04.797Z,6.9
2023-04-24T11:25:01.073Z,6.8
2023-04-24T11:30:01.277Z,6.9
2023-04-24T11:35:00.848Z,6.8
2023-04-24T11:40:01.916Z,6.8
2023-04-24T11:45:01.194Z,6.9
2023-04-24T11:50:01.728Z,6.9
2023-04-24T12:00:00.993Z,6.9
2023-04-24T12:05:01.229Z,6.6
2023-04-24T12:10:01.254Z,6.6
2023-04-24T12:15:01.282Z,6.8
2023-04-24T12:25:00.898Z,6.9
2023-04-24T12:30:01.142Z,6.9
2023-04-24T12:40:00.956Z,7
2023-04-24T12:45:00.980Z,7
2023-04-24T12:55:00.971Z,6.7
2023-04-24T13:00:00.895Z,6.8
2023-04-24T13:05:00.955Z,6.6
2023-04-24T13:10:00.899Z,6.7
2023-04-24T13:15:00.985Z,6.8
2023-04-24T13:20:00.945Z,6.7
2023-04-24T13:25:01.011Z,6.9
2023-04-24T13:30:01.005Z,6.8
2023-04-24T13:35:00.897Z,6.8
2023-04-24T13:40:00.960Z,7
2023-04-24T13:45:02.300Z,6.8
2023-04-24T13:50:00.943Z,6.9
2023-04-24T13:55:00.954Z,6.6
2023-04-24T14:00:00.969Z,6.5
2023-04-24T14:05:00.983Z,6.6
2023-04-24T14:10:00.895Z,6.7
2023-04-24T14:20:00.939Z,6.6
2023-04-24T14:25:00.939Z,6.5
2023-04-24T14:30:00.952Z,6.5
2023-04-24T14:35:00.955Z,6.5
2023-04-24T14:40:15.691Z,6.7
2023-04-24T14:45:00.881Z,6.9
2023-04-24T14:50:00.935Z,7
2023-04-24T14:55:00.880Z,6.9
2023-04-24T15:00:00.933Z,7.1
2023-04-24T15:10:00.905Z,7.1
2023-04-24T15:15:00.997Z,6.9
2023-04-24T15:20:00.892Z,7.2
2023-04-24T15:25:00.882Z,7.2
2023-04-24T15:30:00.857Z,6.9
2023-04-24T15:35:07.482Z,7
2023-04-24T15:40:00.905Z,7
2023-04-24T15:50:00.935Z,7
2023-04-24T15:55:00.927Z,6.7
2023-04-24T16:00:00.895Z,6.7
2023-04-24T16:05:01.055Z,6.6
2023-04-24T16:10:00.938Z,6.5
2023-04-24T16:15:00.932Z,6.6
2023-04-24T16:20:00.908Z,6.6
2023-04-24T16:25:00.864Z,6.6
2023-04-24T16:30:00.952Z,6.6
2023-04-24T16:35:00.931Z,6.3
2023-04-24T16:40:01.126Z,6.4
2023-04-24T16:45:01.001Z,6.5
2023-04-24T16:50:00.950Z,6.6
2023-04-24T16:55:00.990Z,6.7
2023-04-24T17:00:00.958Z,6.8
2023-04-24T17:05:01.087Z,6.9
2023-04-24T17:10:01.170Z,6.7
2023-04-24T17:15:00.959Z,6.9
2023-04-24T17:20:03.645Z,6.6
2023-04-24T17:25:01.031Z,6.5
2023-04-24T17:30:01.021Z,6.5
2023-04-24T17:35:00.955Z,6.4
2023-04-24T17:40:01.106Z,6.4
2023-04-24T17:45:00.935Z,6.4
2023-04-24T17:55:00.876Z,6.3
2023-04-24T18:00:00.915Z,6.3
2023-04-24T18:05:01.105Z,6.3
2023-04-24T18:10:00.951Z,6.2
2023-04-24T18:20:00.956Z,6.3
2023-04-24T18:25:00.809Z,6.2
2023-04-24T18:30:00.988Z,6.3
2023-04-24T18:35:00.821Z,6.4
2023-04-24T18:40:01.019Z,6.3
2023-04-24T18:45:00.867Z,6.3
2023-04-24T18:50:00.864Z,6.3
2023-04-24T18:55:00.958Z,6.3
2023-04-24T19:00:01.001Z,6.2
2023-04-24T19:05:00.857Z,6.2
2023-04-24T19:10:01.022Z,6.2
2023-04-24T19:15:00.890Z,6.2
2023-04-24T19:20:00.935Z,6.2
2023-04-24T19:25:01.013Z,6.2
2023-04-24T19:30:00.937Z,6.2
2023-04-24T19:35:01.045Z,6.1
2023-04-24T19:40:01.061Z,6.2
2023-04-24T19:45:01.005Z,6.1
2023-04-24T19:50:00.956Z,6.1
2023-04-24T19:55:00.949Z,6.1
2023-04-24T20:00:01.079Z,6.1
2023-04-24T20:05:01.223Z,6.1
2023-04-24T20:10:00.989Z,6.1
2023-04-24T20:15:00.939Z,6.2
2023-04-24T20:20:01.000Z,6.2
2023-04-24T20:25:01.048Z,6.2
2023-04-24T20:30:00.993Z,6.2
2023-04-24T20:35:00.960Z,6.2
2023-04-24T20:40:01.356Z,6.2
2023-04-24T20:45:00.958Z,6.2
2023-04-24T20:50:00.915Z,6.3
2023-04-24T20:55:01.779Z,6.3
2023-04-24T21:00:00.880Z,6.3
2023-04-24T21:05:01.266Z,6.3
2023-04-24T21:10:01.029Z,6.3
2023-04-24T21:15:00.897Z,6.3
2023-04-24T21:20:00.923Z,6.4
2023-04-24T21:25:01.403Z,6.4
2023-04-24T21:30:00.953Z,6.4
2023-04-24T21:35:01.032Z,6.4
2023-04-24T21:40:01.062Z,6.4
2023-04-24T21:45:01.022Z,6.4
2023-04-24T21:50:01.001Z,6.4
2023-04-24T21:55:00.973Z,6.4
2023-04-24T22:00:01.048Z,6.5
2023-04-24T22:05:00.952Z,6.5
2023-04-24T22:10:01.016Z,6.5
2023-04-24T22:15:00.945Z,6.5
2023-04-24T22:20:00.993Z,6.6
2023-04-24T22:25:01.067Z,6.5
2023-04-24T22:30:00.986Z,6.5
2023-04-24T22:35:00.992Z,6.5
2023-04-24T22:40:01.043Z,6.5
2023-04-24T22:45:00.966Z,6.5
2023-04-24T22:50:00.959Z,6.5
2023-04-24T22:55:00.982Z,6.5
2023-04-24T23:00:01.173Z,6.5
2023-04-24T23:05:00.956Z,6.5
2023-04-24T23:10:01.161Z,6.5
2023-04-24T23:15:00.915Z,6.6
2023-04-24T23:20:01.098Z,6.6
2023-04-24T23:25:00.955Z,6.6
2023-04-24T23:30:00.977Z,6.6
2023-04-24T23:40:00.983Z,6.5
2023-04-24T23:45:01.056Z,6.5
2023-04-24T23:50:00.880Z,6.4
2023-04-24T23:55:00.940Z,6.4
